Time;durP1;ratioP1;P1;durP2;ratioP2;P2;SDS_P1;SDS_P2;PMS_P1;PMS_P2;Temp;Humidity;BMP_temperature;BMP_pressure;BME280_temperature;BME280_humidity;BME280_pressure;Samples;Min_cycle;Max_cycle;Signal;HPM_P1;HPM_P2
2023/09/19 00:01:08;;;;;;;7.15;2.15;;;;;;;;;;4966458;28;20090;-76
2023/09/19 00:03:35;;;;;;;6.18;1.85;;;;;;;;;;4969585;28;20023;-75
2023/09/19 00:06:01;;;;;;;5.32;1.75;;;;;;;;;;4969335;28;20027;-76
2023/09/19 00:08:27;;;;;;;6.18;1.58;;;;;;;;;;4969629;28;20094;-75
2023/09/19 00:10:54;;;;;;;5.95;1.67;;;;;;;;;;4969204;28;20038;-77
2023/09/19 00:13:20;;;;;;;6.50;1.50;;;;;;;;;;4968789;28;20023;-77
2023/09/19 00:15:50;;;;;;;6.03;1.60;;;;;;;;;;4971830;28;20038;-76
2023/09/19 00:18:21;;;;;;;8.73;2.08;;;;;;;;;;4965591;28;20046;-79
2023/09/19 00:20:51;;;;;;;6.38;1.45;;;;;;;;;;4962554;28;20077;-78
2023/09/19 00:23:17;;;;;;;7.53;1.63;;;;;;;;;;4966655;28;20026;-78
2023/09/19 00:25:42;;;;;;;9.20;1.85;;;;;;;;;;4966349;28;20074;-78
2023/09/19 00:28:07;;;;;;;8.07;1.73;;;;;;;;;;4968002;28;20022;-77
2023/09/19 00:30:34;;;;;;;4.85;1.55;;;;;;;;;;4968953;28;20310;-78
2023/09/19 00:33:01;;;;;;;7.60;1.60;;;;;;;;;;4962560;28;20041;-77
2023/09/19 00:35:27;;;;;;;8.02;1.88;;;;;;;;;;4964021;28;20023;-78
2023/09/19 00:37:53;;;;;;;7.03;1.63;;;;;;;;;;4965435;28;20037;-78
2023/09/19 00:40:19;;;;;;;5.07;1.50;;;;;;;;;;4970411;28;20039;-77
2023/09/19 00:42:45;;;;;;;6.05;1.63;;;;;;;;;;4969375;28;20067;-79
2023/09/19 00:45:13;;;;;;;6.22;1.88;;;;;;;;;;4964188;28;20027;-80
2023/09/19 00:47:43;;;;;;;9.43;1.80;;;;;;;;;;4966261;28;20027;-77
2023/09/19 00:50:10;;;;;;;6.97;1.70;;;;;;;;;;4965276;28;20031;-78
2023/09/19 00:52:38;;;;;;;6.68;1.70;;;;;;;;;;4968899;28;20035;-78
2023/09/19 00:55:08;;;;;;;6.03;1.55;;;;;;;;;;4976731;28;20050;-77
2023/09/19 00:57:35;;;;;;;6.38;1.40;;;;;;;;;;4973871;28;20521;-77
2023/09/19 01:00:06;;;;;;;7.18;1.67;;;;;;;;;;4977109;28;20039;-79
2023/09/19 01:02:32;;;;;;;5.68;1.80;;;;;;;;;;4974117;28;20026;-79
2023/09/19 01:04:59;;;;;;;5.63;1.80;;;;;;;;;;4970914;28;20045;-78
2023/09/19 01:07:24;;;;;;;6.55;1.48;;;;;;;;;;4970593;28;20503;-78
2023/09/19 01:09:51;;;;;;;5.80;1.65;;;;;;;;;;4972120;28;20030;-78
2023/09/19 01:12:28;;;;;;;6.07;1.52;;;;;;;;;;4968642;28;20031;-78
2023/09/19 01:14:58;;;;;;;8.43;1.80;;;;;;;;;;4967108;28;20431;-79
2023/09/19 01:17:44;;;;;;;8.80;1.70;;;;;;;;;;4968013;28;20022;-78
2023/09/19 01:20:32;;;;;;;5.47;1.60;;;;;;;;;;4962821;28;21459;-78
2023/09/19 01:23:19;;;;;;;4.78;1.80;;;;;;;;;;4960221;28;20049;-78
2023/09/19 01:26:06;;;;;;;6.93;1.60;;;;;;;;;;4970607;28;20043;-77
2023/09/19 01:28:40;;;;;;;5.45;1.60;;;;;;;;;;4966359;28;20307;-77
2023/09/19 01:31:10;;;;;;;6.47;1.70;;;;;;;;;;4972633;28;20045;-77
2023/09/19 01:33:59;;;;;;;10.18;1.92;;;;;;;;;;4972603;28;20389;-77
2023/09/19 01:36:29;;;;;;;6.32;1.63;;;;;;;;;;4971200;28;20282;-77
2023/09/19 01:39:05;;;;;;;8.20;1.80;;;;;;;;;;4969535;28;20417;-77
2023/09/19 01:41:47;;;;;;;5.38;1.80;;;;;;;;;;4967830;28;20031;-78
2023/09/19 01:44:22;;;;;;;8.57;1.73;;;;;;;;;;4968868;28;20055;-77
2023/09/19 01:46:47;;;;;;;;;;;;;;;;;;4970766;28;20055;-78
2023/09/19 01:49:28;;;;;;;10.38;1.70;;;;;;;;;;4969530;28;20434;-77
2023/09/19 01:52:16;;;;;;;8.95;1.75;;;;;;;;;;4969826;28;20023;-77
2023/09/19 01:54:51;;;;;;;5.55;1.73;;;;;;;;;;4969435;28;20089;-77
2023/09/19 01:57:19;;;;;;;6.07;1.52;;;;;;;;;;4969799;28;20027;-78
2023/09/19 01:59:59;;;;;;;5.07;1.60;;;;;;;;;;4970082;28;20551;-78
2023/09/19 02:02:25;;;;;;;7.50;1.80;;;;;;;;;;4969625;28;20034;-77
2023/09/19 02:04:51;;;;;;;6.18;1.90;;;;;;;;;;4970017;28;20038;-77
2023/09/19 02:07:17;;;;;;;7.07;1.60;;;;;;;;;;4969786;28;20049;-77
2023/09/19 02:09:42;;;;;;;7.93;1.67;;;;;;;;;;4967961;28;20142;-78
2023/09/19 02:12:09;;;;;;;5.85;1.65;;;;;;;;;;4960656;28;20032;-78
2023/09/19 02:14:35;;;;;;;5.75;1.63;;;;;;;;;;4965003;28;20087;-77
2023/09/19 02:17:02;;;;;;;5.28;1.60;;;;;;;;;;4969859;28;20030;-78
2023/09/19 02:19:29;;;;;;;4.88;1.70;;;;;;;;;;4970259;28;20027;-78
2023/09/19 02:21:55;;;;;;;8.80;1.80;;;;;;;;;;4968873;28;20341;-78
2023/09/19 02:24:20;;;;;;;8.93;1.80;;;;;;;;;;4968128;28;20048;-77
2023/09/19 02:26:45;;;;;;;11.88;2.00;;;;;;;;;;4974359;28;20041;-77
2023/09/19 02:29:12;;;;;;;6.57;1.95;;;;;;;;;;4973338;28;20026;-78
2023/09/19 02:31:38;;;;;;;8.15;1.70;;;;;;;;;;4973060;28;20026;-79
2023/09/19 02:34:05;;;;;;;8.07;1.63;;;;;;;;;;4973341;28;20138;-79
2023/09/19 02:36:30;;;;;;;5.85;1.70;;;;;;;;;;4973205;28;20030;-79
2023/09/19 02:38:56;;;;;;;6.93;1.92;;;;;;;;;;4972876;28;20038;-78
2023/09/19 02:41:21;;;;;;;6.40;2.13;;;;;;;;;;4971253;28;20042;-79
2023/09/19 02:43:47;;;;;;;11.18;2.03;;;;;;;;;;4968148;28;20050;-79
2023/09/19 02:46:12;;;;;;;6.38;1.70;;;;;;;;;;4972495;28;20050;-78
2023/09/19 02:48:38;;;;;;;6.95;1.90;;;;;;;;;;4974030;28;20027;-79
2023/09/19 02:51:03;;;;;;;7.68;1.80;;;;;;;;;;4971827;28;20113;-78
2023/09/19 02:53:30;;;;;;;8.55;1.95;;;;;;;;;;4972612;28;20030;-79
2023/09/19 02:55:56;;;;;;;6.57;1.60;;;;;;;;;;4972737;28;20451;-78
2023/09/19 02:58:23;;;;;;;7.40;1.60;;;;;;;;;;4972905;28;20062;-78
2023/09/19 03:00:51;;;;;;;7.15;1.90;;;;;;;;;;4972664;28;20027;-78
2023/09/19 03:03:17;;;;;;;8.20;1.67;;;;;;;;;;4972559;28;20030;-78
2023/09/19 03:05:47;;;;;;;5.90;1.80;;;;;;;;;;4972631;28;20451;-79
2023/09/19 03:08:14;;;;;;;7.05;1.80;;;;;;;;;;4973521;28;20026;-78
2023/09/19 03:10:40;;;;;;;9.88;1.70;;;;;;;;;;4965647;28;20031;-78
2023/09/19 03:13:09;;;;;;;7.05;1.92;;;;;;;;;;4956056;28;20038;-78
2023/09/19 03:15:38;;;;;;;9.30;2.35;;;;;;;;;;4972904;28;20077;-78
2023/09/19 03:18:04;;;;;;;8.55;1.75;;;;;;;;;;4972205;28;20038;-77
2023/09/19 03:20:29;;;;;;;11.25;1.98;;;;;;;;;;4972175;28;20023;-77
2023/09/19 03:22:55;;;;;;;7.10;1.90;;;;;;;;;;4972039;28;20517;-77
2023/09/19 03:25:22;;;;;;;6.97;1.70;;;;;;;;;;4972116;28;20026;-78
2023/09/19 03:27:48;;;;;;;7.82;2.08;;;;;;;;;;4973814;28;20427;-78
2023/09/19 03:30:13;;;;;;;9.05;2.13;;;;;;;;;;4972553;28;20082;-78
2023/09/19 03:32:46;;;;;;;11.18;2.28;;;;;;;;;;4970801;28;20114;-78
2023/09/19 03:35:14;;;;;;;6.22;2.00;;;;;;;;;;4972043;28;20026;-79
2023/09/19 03:37:41;;;;;;;8.98;2.38;;;;;;;;;;4970686;28;20031;-79
2023/09/19 03:40:07;;;;;;;8.45;1.92;;;;;;;;;;4971949;28;20062;-78
2023/09/19 03:42:33;;;;;;;15.55;2.70;;;;;;;;;;4972477;28;20034;-77
2023/09/19 03:44:59;;;;;;;11.00;2.10;;;;;;;;;;4967846;28;20030;-78
2023/09/19 03:47:25;;;;;;;9.35;1.98;;;;;;;;;;4968352;28;20125;-79
2023/09/19 03:49:50;;;;;;;7.57;1.80;;;;;;;;;;4969760;28;20035;-78
2023/09/19 03:52:15;;;;;;;8.55;2.05;;;;;;;;;;4978458;28;20085;-79
2023/09/19 03:54:41;;;;;;;10.00;1.80;;;;;;;;;;4971250;28;20090;-78
2023/09/19 03:57:07;;;;;;;10.65;2.10;;;;;;;;;;4971905;28;20085;-78
2023/09/19 03:59:32;;;;;;;8.52;1.92;;;;;;;;;;4971768;28;20078;-78
2023/09/19 04:01:58;;;;;;;10.70;2.10;;;;;;;;;;4971844;28;20030;-77
2023/09/19 04:04:25;;;;;;;7.10;1.80;;;;;;;;;;4971242;28;20027;-77
2023/09/19 04:06:51;;;;;;;8.00;2.22;;;;;;;;;;4970935;28;20026;-77
2023/09/19 04:09:16;;;;;;;6.97;2.20;;;;;;;;;;4974857;28;20395;-78
2023/09/19 04:11:41;;;;;;;7.53;1.80;;;;;;;;;;4971406;28;20027;-78
2023/09/19 04:14:07;;;;;;;9.77;2.30;;;;;;;;;;4966385;28;20486;-77
2023/09/19 04:16:32;;;;;;;11.43;2.40;;;;;;;;;;4962407;28;20073;-77
2023/09/19 04:18:57;;;;;;;12.75;2.08;;;;;;;;;;4971023;28;20031;-77
2023/09/19 04:21:23;;;;;;;12.93;1.83;;;;;;;;;;4971742;28;20081;-79
2023/09/19 04:23:48;;;;;;;11.70;2.30;;;;;;;;;;4971104;28;20491;-78
2023/09/19 04:26:16;;;;;;;8.05;2.03;;;;;;;;;;4971390;28;20033;-78
2023/09/19 04:28:43;;;;;;;10.45;2.03;;;;;;;;;;4970721;28;20435;-78
2023/09/19 04:31:10;;;;;;;9.05;2.20;;;;;;;;;;4972038;28;20034;-75
2023/09/19 04:33:35;;;;;;;8.25;2.10;;;;;;;;;;4970936;28;20323;-78
2023/09/19 04:36:03;;;;;;;10.52;1.98;;;;;;;;;;4971319;28;20662;-78
2023/09/19 04:38:29;;;;;;;10.85;1.90;;;;;;;;;;4970401;28;20034;-78
2023/09/19 04:40:58;;;;;;;9.35;1.80;;;;;;;;;;4970928;28;20140;-77
2023/09/19 04:43:24;;;;;;;8.80;2.00;;;;;;;;;;4966680;28;20039;-78
2023/09/19 04:45:50;;;;;;;7.45;1.95;;;;;;;;;;4962066;28;20038;-78
2023/09/19 04:48:16;;;;;;;9.27;2.42;;;;;;;;;;4969377;28;20491;-79
2023/09/19 04:50:41;;;;;;;12.25;2.20;;;;;;;;;;4970733;28;20057;-78
2023/09/19 04:53:07;;;;;;;11.05;2.35;;;;;;;;;;4969435;28;20026;-78
2023/09/19 04:55:32;;;;;;;12.15;2.30;;;;;;;;;;4968703;28;20439;-78
2023/09/19 04:57:58;;;;;;;9.18;2.20;;;;;;;;;;4966490;28;20045;-78
2023/09/19 05:00:24;;;;;;;11.10;2.10;;;;;;;;;;4967812;28;20479;-78
2023/09/19 05:02:51;;;;;;;7.40;2.38;;;;;;;;;;4967674;28;20058;-79
2023/09/19 05:05:18;;;;;;;8.77;2.08;;;;;;;;;;4976465;28;20506;-78
2023/09/19 05:07:44;;;;;;;8.75;2.08;;;;;;;;;;4973719;28;20065;-78
2023/09/19 05:10:11;;;;;;;6.60;2.10;;;;;;;;;;4974507;28;20468;-78
2023/09/19 05:12:37;;;;;;;15.32;2.40;;;;;;;;;;4969386;28;20193;-79
2023/09/19 05:15:03;;;;;;;12.30;2.20;;;;;;;;;;4959658;28;20099;-80
2023/09/19 05:17:29;;;;;;;15.98;2.60;;;;;;;;;;4968468;28;20534;-80
2023/09/19 05:19:55;;;;;;;10.52;2.17;;;;;;;;;;4967240;28;20035;-79
2023/09/19 05:22:20;;;;;;;9.52;2.20;;;;;;;;;;4967595;28;20051;-79
2023/09/19 05:24:48;;;;;;;9.00;2.25;;;;;;;;;;4967509;28;20042;-80
2023/09/19 05:27:17;;;;;;;9.90;2.30;;;;;;;;;;4969471;28;20034;-79
2023/09/19 05:29:45;;;;;;;12.20;2.08;;;;;;;;;;4976638;28;20326;-79
2023/09/19 05:32:11;;;;;;;10.82;2.35;;;;;;;;;;4970724;28;20047;-79
2023/09/19 05:34:38;;;;;;;11.85;2.20;;;;;;;;;;4958577;28;20547;-78
2023/09/19 05:37:03;;;;;;;13.65;2.30;;;;;;;;;;4968585;28;20121;-77
2023/09/19 05:39:28;;;;;;;11.63;2.67;;;;;;;;;;4965137;28;20125;-80
2023/09/19 05:41:54;;;;;;;11.07;2.20;;;;;;;;;;4969203;28;20421;-79
2023/09/19 05:44:20;;;;;;;14.20;3.05;;;;;;;;;;4962651;28;20047;-82
2023/09/19 05:46:48;;;;;;;11.10;2.40;;;;;;;;;;4965371;28;20023;-78
2023/09/19 05:49:13;;;;;;;9.98;2.17;;;;;;;;;;4967075;28;20019;-79
2023/09/19 05:51:38;;;;;;;11.80;2.95;;;;;;;;;;4961132;28;20093;-81
2023/09/19 05:54:05;;;;;;;9.88;2.25;;;;;;;;;;4967367;28;20447;-83
2023/09/19 05:56:31;;;;;;;12.40;2.60;;;;;;;;;;4967587;28;20046;-79
2023/09/19 05:58:56;;;;;;;12.15;2.03;;;;;;;;;;4969438;28;20706;-80
2023/09/19 06:01:22;;;;;;;12.43;2.30;;;;;;;;;;4973077;28;20034;-79
2023/09/19 06:03:47;;;;;;;12.68;2.55;;;;;;;;;;4970967;28;20238;-79
2023/09/19 06:06:13;;;;;;;13.70;2.83;;;;;;;;;;4971392;28;20656;-79
2023/09/19 06:08:39;;;;;;;10.00;2.10;;;;;;;;;;4970291;28;20031;-77
2023/09/19 06:11:09;;;;;;;8.75;2.50;;;;;;;;;;4971003;28;20039;-78
2023/09/19 06:13:34;;;;;;;10.07;2.20;;;;;;;;;;4965906;28;20091;-78
2023/09/19 06:16:04;;;;;;;10.82;2.03;;;;;;;;;;4968558;28;20106;-79
2023/09/19 06:18:33;;;;;;;14.05;2.60;;;;;;;;;;4963070;28;20066;-77
2023/09/19 06:20:59;;;;;;;10.95;2.00;;;;;;;;;;4969771;28;20369;-79
2023/09/19 06:23:26;;;;;;;12.63;2.25;;;;;;;;;;4969128;28;20060;-81
2023/09/19 06:25:53;;;;;;;12.25;2.30;;;;;;;;;;4967294;28;20039;-80
2023/09/19 06:28:23;;;;;;;13.60;2.03;;;;;;;;;;4968775;28;20023;-79
2023/09/19 06:30:49;;;;;;;11.73;2.40;;;;;;;;;;4968668;28;20035;-80
2023/09/19 06:33:15;;;;;;;9.13;2.33;;;;;;;;;;4975122;28;20050;-79
2023/09/19 06:35:41;;;;;;;8.43;1.95;;;;;;;;;;4971817;28;20042;-78
2023/09/19 06:38:07;;;;;;;10.85;2.60;;;;;;;;;;4969131;28;20055;-78
2023/09/19 06:40:34;;;;;;;15.15;2.35;;;;;;;;;;4971403;28;20066;-77
2023/09/19 06:43:02;;;;;;;8.27;2.22;;;;;;;;;;4965985;28;20610;-79
2023/09/19 06:45:28;;;;;;;8.85;1.90;;;;;;;;;;4970837;28;20064;-79
2023/09/19 06:47:57;;;;;;;10.38;2.15;;;;;;;;;;4973425;28;20428;-78
2023/09/19 06:50:23;;;;;;;7.47;2.00;;;;;;;;;;4970631;28;20031;-78
2023/09/19 06:52:54;;;;;;;13.02;2.00;;;;;;;;;;4959099;28;20440;-80
2023/09/19 06:55:20;;;;;;;11.75;2.05;;;;;;;;;;4968224;28;20046;-80
2023/09/19 06:57:46;;;;;;;11.98;2.28;;;;;;;;;;4970932;28;20034;-80
2023/09/19 07:00:18;;;;;;;5.95;1.80;;;;;;;;;;4974406;28;20027;-80
2023/09/19 07:02:44;;;;;;;12.57;2.63;;;;;;;;;;4980205;28;20038;-79
2023/09/19 07:05:10;;;;;;;10.23;1.98;;;;;;;;;;4981384;28;20350;-79
2023/09/19 07:07:35;;;;;;;12.05;2.05;;;;;;;;;;4979557;28;20038;-80
2023/09/19 07:10:02;;;;;;;7.82;1.95;;;;;;;;;;4969045;28;20118;-79
2023/09/19 07:12:27;;;;;;;8.32;2.00;;;;;;;;;;4968429;28;20038;-80
2023/09/19 07:14:53;;;;;;;13.05;2.10;;;;;;;;;;4965580;28;20023;-80
2023/09/19 07:17:18;;;;;;;11.18;2.13;;;;;;;;;;4972324;28;20087;-79
2023/09/19 07:19:44;;;;;;;16.17;2.17;;;;;;;;;;4972128;28;20030;-78
2023/09/19 07:22:10;;;;;;;10.63;2.00;;;;;;;;;;4972436;28;20033;-80
2023/09/19 07:24:36;;;;;;;16.10;2.17;;;;;;;;;;4971481;28;20102;-79
2023/09/19 07:27:02;;;;;;;10.77;2.10;;;;;;;;;;4972070;28;20408;-80
2023/09/19 07:29:27;;;;;;;12.80;2.13;;;;;;;;;;4972036;28;20081;-78
2023/09/19 07:31:53;;;;;;;8.52;1.92;;;;;;;;;;4972161;28;20462;-79
2023/09/19 07:34:22;;;;;;;13.00;2.20;;;;;;;;;;4972090;28;20436;-79
2023/09/19 07:36:48;;;;;;;8.07;1.80;;;;;;;;;;4971986;28;20066;-78
2023/09/19 07:39:13;;;;;;;10.82;2.10;;;;;;;;;;4971151;28;20467;-78
2023/09/19 07:41:39;;;;;;;7.93;1.80;;;;;;;;;;4971870;28;20336;-76
2023/09/19 07:44:04;;;;;;;11.18;1.98;;;;;;;;;;4969699;28;20511;-78
2023/09/19 07:46:31;;;;;;;10.93;2.10;;;;;;;;;;4971657;28;20037;-79
2023/09/19 07:48:57;;;;;;;8.75;1.73;;;;;;;;;;4971472;28;20027;-79
2023/09/19 07:51:22;;;;;;;9.63;2.10;;;;;;;;;;4971164;28;20038;-80
2023/09/19 07:53:48;;;;;;;10.13;2.25;;;;;;;;;;4971262;28;20460;-78
2023/09/19 07:56:13;;;;;;;9.15;2.17;;;;;;;;;;4971672;28;20022;-77
2023/09/19 07:58:41;;;;;;;11.07;1.90;;;;;;;;;;4971698;28;20034;-78
2023/09/19 08:01:07;;;;;;;7.82;2.10;;;;;;;;;;4971861;28;20038;-78
2023/09/19 08:03:40;;;;;;;8.45;1.95;;;;;;;;;;4971513;28;20023;-79
2023/09/19 08:06:06;;;;;;;7.97;1.77;;;;;;;;;;4970132;28;20403;-79
2023/09/19 08:08:36;;;;;;;9.13;2.50;;;;;;;;;;4969869;28;20034;-79
2023/09/19 08:11:07;;;;;;;8.35;1.95;;;;;;;;;;4971466;28;20034;-79
2023/09/19 08:13:35;;;;;;;9.57;1.92;;;;;;;;;;4965178;28;20038;-79
2023/09/19 08:16:01;;;;;;;6.97;1.85;;;;;;;;;;4953029;28;20035;-80
2023/09/19 08:18:29;;;;;;;10.70;2.10;;;;;;;;;;4969491;28;20053;-78
2023/09/19 08:20:55;;;;;;;9.05;1.90;;;;;;;;;;4971569;28;20027;-80
2023/09/19 08:23:21;;;;;;;7.70;1.83;;;;;;;;;;4970204;28;20030;-79
2023/09/19 08:25:47;;;;;;;9.13;2.08;;;;;;;;;;4971298;28;20072;-79
2023/09/19 08:28:17;;;;;;;11.27;2.60;;;;;;;;;;4971023;28;20117;-79
2023/09/19 08:30:43;;;;;;;9.27;1.70;;;;;;;;;;4969557;28;20471;-79
2023/09/19 08:33:08;;;;;;;11.07;1.90;;;;;;;;;;4970727;28;20043;-78
2023/09/19 08:35:33;;;;;;;10.32;1.92;;;;;;;;;;4970589;28;20027;-78
2023/09/19 08:38:03;;;;;;;7.18;1.63;;;;;;;;;;4972149;28;20038;-79
2023/09/19 08:40:33;;;;;;;7.90;1.60;;;;;;;;;;4973817;28;20058;-78
2023/09/19 08:43:00;;;;;;;9.40;1.92;;;;;;;;;;4968557;28;20074;-78
2023/09/19 08:45:28;;;;;;;6.80;1.65;;;;;;;;;;4957692;28;20481;-79
2023/09/19 08:48:06;;;;;;;6.85;1.80;;;;;;;;;;4962896;28;20121;-78
2023/09/19 08:50:39;;;;;;;6.70;1.75;;;;;;;;;;4970940;28;20105;-78
2023/09/19 08:53:23;;;;;;;9.00;1.98;;;;;;;;;;4976783;28;20138;-79
2023/09/19 08:55:53;;;;;;;9.90;1.70;;;;;;;;;;4979629;28;20043;-78
2023/09/19 08:58:21;;;;;;;7.18;1.77;;;;;;;;;;4977514;28;20139;-78
2023/09/19 09:01:01;;;;;;;6.63;1.80;;;;;;;;;;4980382;28;20031;-76
2023/09/19 09:03:32;;;;;;;7.40;1.60;;;;;;;;;;4980044;28;20090;-77
2023/09/19 09:05:58;;;;;;;5.82;1.85;;;;;;;;;;4979883;28;20019;-76
2023/09/19 09:08:25;;;;;;;8.40;1.73;;;;;;;;;;4979972;28;20302;-80
2023/09/19 09:10:51;;;;;;;8.57;1.73;;;;;;;;;;4981480;28;20066;-77
2023/09/19 09:13:17;;;;;;;6.05;1.73;;;;;;;;;;4978897;28;20042;-78
2023/09/19 09:15:44;;;;;;;9.10;1.92;;;;;;;;;;4970583;28;20027;-78
2023/09/19 09:18:10;;;;;;;5.85;1.45;;;;;;;;;;4981823;28;20026;-80
2023/09/19 09:20:36;;;;;;;10.38;1.85;;;;;;;;;;4980554;28;20557;-77
2023/09/19 09:23:03;;;;;;;11.52;1.88;;;;;;;;;;4981269;28;20353;-79
2023/09/19 09:25:54;;;;;;;6.82;1.50;;;;;;;;;;4980401;28;20516;-77
2023/09/19 09:28:21;;;;;;;10.02;1.65;;;;;;;;;;4979935;28;20023;-77
2023/09/19 09:30:47;;;;;;;6.35;1.50;;;;;;;;;;4981280;28;20045;-77
2023/09/19 09:33:16;;;;;;;6.93;1.70;;;;;;;;;;4980937;28;20046;-77
2023/09/19 09:35:51;;;;;;;6.05;1.60;;;;;;;;;;4961472;28;20091;-77
2023/09/19 09:38:20;;;;;;;6.60;1.55;;;;;;;;;;4976122;28;20508;-78
2023/09/19 09:40:58;;;;;;;6.95;1.85;;;;;;;;;;4971952;28;20011;-77
2023/09/19 09:43:39;;;;;;;4.63;1.75;;;;;;;;;;4971617;28;20350;-77
2023/09/19 09:46:32;;;;;;;7.40;1.60;;;;;;;;;;4974244;28;20117;-77
2023/09/19 09:49:11;;;;;;;6.10;1.30;;;;;;;;;;4977180;28;20038;-76
2023/09/19 09:51:39;;;;;;;10.10;1.70;;;;;;;;;;4977780;28;20035;-78
2023/09/19 09:54:12;;;;;;;6.75;1.65;;;;;;;;;;4973481;28;20133;-78
2023/09/19 09:56:58;;;;;;;5.45;1.65;;;;;;;;;;4971439;28;20031;-77
2023/09/19 10:02:36;;;;;;;6.28;1.63;;;;;;;;;;4955636;28;20145;-80
2023/09/19 10:05:40;;;;;;;8.57;1.98;;;;;;;;;;4955994;28;20365;-77
2023/09/19 10:08:12;;;;;;;8.13;1.50;;;;;;;;;;4963380;28;20117;-78
2023/09/19 10:13:13;;;;;;;6.65;1.50;;;;;;;;;;4969085;28;20097;-77
2023/09/19 10:15:46;;;;;;;7.40;1.67;;;;;;;;;;4960223;28;20031;-76
2023/09/19 10:18:17;;;;;;;6.53;1.50;;;;;;;;;;4967513;28;20082;-78
2023/09/19 10:20:45;;;;;;;6.72;1.58;;;;;;;;;;4969390;28;20023;-77
2023/09/19 10:23:12;;;;;;;5.63;1.50;;;;;;;;;;4969077;28;20472;-78
2023/09/19 10:25:42;;;;;;;4.25;1.30;;;;;;;;;;4969560;28;20560;-76
2023/09/19 10:28:13;;;;;;;4.82;1.65;;;;;;;;;;4972311;28;20033;-77
2023/09/19 10:30:43;;;;;;;5.05;1.88;;;;;;;;;;4971423;28;20124;-77
2023/09/19 10:33:09;;;;;;;4.32;1.30;;;;;;;;;;4969527;28;20027;-77
2023/09/19 10:35:40;;;;;;;7.40;1.58;;;;;;;;;;4969809;28;20031;-78
2023/09/19 10:38:06;;;;;;;5.70;1.63;;;;;;;;;;4965269;28;20062;-78
2023/09/19 10:40:33;;;;;;;6.55;1.60;;;;;;;;;;4960237;28;20149;-78
2023/09/19 10:43:05;;;;;;;4.47;1.45;;;;;;;;;;4969043;28;20065;-77
2023/09/19 10:45:33;;;;;;;5.75;1.40;;;;;;;;;;4969680;28;20050;-79
2023/09/19 10:48:07;;;;;;;4.57;1.40;;;;;;;;;;4972446;28;20086;-76
2023/09/19 10:50:59;;;;;;;5.97;1.58;;;;;;;;;;4972262;28;20396;-78
2023/09/19 10:53:26;;;;;;;5.53;1.73;;;;;;;;;;4971713;28;20496;-79
2023/09/19 10:55:57;;;;;;;3.33;1.27;;;;;;;;;;4972430;28;20023;-78
2023/09/19 10:58:36;;;;;;;4.80;1.50;;;;;;;;;;4972327;28;20038;-79
2023/09/19 11:01:18;;;;;;;7.95;1.73;;;;;;;;;;4973209;28;20375;-79
2023/09/19 11:03:44;;;;;;;4.45;1.38;;;;;;;;;;4973068;28;20026;-79
2023/09/19 11:06:18;;;;;;;3.72;1.35;;;;;;;;;;4971749;28;20041;-77
2023/09/19 11:08:56;;;;;;;;;;;;;;;;;;4966334;28;20065;-79
2023/09/19 11:11:40;;;;;;;6.03;1.48;;;;;;;;;;4968168;28;19922;-78
2023/09/19 11:14:15;;;;;;;5.10;1.52;;;;;;;;;;4971376;28;20514;-75
2023/09/19 11:17:15;;;;;;;5.70;1.38;;;;;;;;;;4972872;28;20057;-77
2023/09/19 11:22:53;;;;;;;4.18;1.30;;;;;;;;;;4971257;28;20061;-74
2023/09/19 11:25:39;;;;;;;5.47;1.40;;;;;;;;;;4973092;28;20023;-75
2023/09/19 11:28:15;;;;;;;4.22;1.38;;;;;;;;;;4972632;28;20576;-74
2023/09/19 11:30:45;;;;;;;5.00;1.30;;;;;;;;;;4972737;28;20042;-76
2023/09/19 11:33:23;;;;;;;5.30;1.40;;;;;;;;;;4972461;28;20035;-77
2023/09/19 11:36:18;;;;;;;4.05;1.40;;;;;;;;;;4971359;28;20357;-77
2023/09/19 11:38:47;;;;;;;5.88;1.52;;;;;;;;;;4960775;28;20028;-78
2023/09/19 11:41:25;;;;;;;4.40;1.50;;;;;;;;;;4966207;28;20070;-79
2023/09/19 11:43:54;;;;;;;5.35;1.58;;;;;;;;;;4971848;28;20053;-78
2023/09/19 11:46:21;;;;;;;9.75;1.50;;;;;;;;;;4971833;28;20496;-79
2023/09/19 11:48:49;;;;;;;5.82;1.73;;;;;;;;;;4971920;28;20022;-78
2023/09/19 11:51:22;;;;;;;6.38;1.92;;;;;;;;;;4972367;28;20507;-76
2023/09/19 11:53:50;;;;;;;5.70;1.75;;;;;;;;;;4971323;28;20022;-77
2023/09/19 11:56:17;;;;;;;4.32;1.60;;;;;;;;;;4972083;28;20109;-77
2023/09/19 11:58:45;;;;;;;3.85;1.50;;;;;;;;;;4970613;28;20027;-77
2023/09/19 12:01:19;;;;;;;5.38;1.65;;;;;;;;;;4972103;28;20022;-78
2023/09/19 12:03:49;;;;;;;3.63;1.58;;;;;;;;;;4962401;28;20023;-77
2023/09/19 12:06:16;;;;;;;6.13;1.75;;;;;;;;;;4964473;28;20030;-76
2023/09/19 12:08:42;;;;;;;4.47;1.50;;;;;;;;;;4967470;28;20023;-76
2023/09/19 12:11:13;;;;;;;4.93;1.67;;;;;;;;;;4964934;28;20096;-76
2023/09/19 12:13:46;;;;;;;9.32;2.05;;;;;;;;;;4967605;28;20026;-76
2023/09/19 12:16:21;;;;;;;7.13;1.70;;;;;;;;;;4971481;28;20093;-77
2023/09/19 12:18:50;;;;;;;4.90;1.48;;;;;;;;;;4971106;28;20150;-77
2023/09/19 12:21:31;;;;;;;5.45;1.92;;;;;;;;;;4971254;28;20038;-78
2023/09/19 12:24:06;;;;;;;5.63;1.90;;;;;;;;;;4962000;28;20027;-77
2023/09/19 12:26:40;;;;;;;7.05;1.80;;;;;;;;;;4970511;28;20041;-77
2023/09/19 12:29:12;;;;;;;5.65;1.70;;;;;;;;;;4970083;28;20058;-79
2023/09/19 12:31:48;;;;;;;7.50;1.77;;;;;;;;;;4977583;28;20447;-75
2023/09/19 12:34:19;;;;;;;5.30;1.67;;;;;;;;;;4970432;28;20054;-76
2023/09/19 12:36:45;;;;;;;5.53;1.73;;;;;;;;;;4970255;28;20078;-75
2023/09/19 12:39:10;;;;;;;4.75;1.60;;;;;;;;;;4970984;28;20027;-75
2023/09/19 12:41:37;;;;;;;7.80;1.80;;;;;;;;;;4971186;28;20069;-76
2023/09/19 12:44:09;;;;;;;3.42;1.50;;;;;;;;;;4967908;28;20043;-75
2023/09/19 12:46:35;;;;;;;4.70;1.60;;;;;;;;;;4960921;28;20479;-76
2023/09/19 12:49:18;;;;;;;7.63;1.90;;;;;;;;;;4970916;28;20136;-75
2023/09/19 12:51:45;;;;;;;11.48;2.10;;;;;;;;;;4969598;28;20117;-77
2023/09/19 12:54:11;;;;;;;5.13;1.77;;;;;;;;;;4970496;28;20089;-76
2023/09/19 12:56:48;;;;;;;7.47;1.60;;;;;;;;;;4970920;28;20022;-76
2023/09/19 12:59:14;;;;;;;8.82;2.20;;;;;;;;;;4970787;28;20046;-76
2023/09/19 13:01:46;;;;;;;5.10;1.60;;;;;;;;;;4970747;28;20027;-77
2023/09/19 13:04:29;;;;;;;6.10;1.75;;;;;;;;;;4970613;28;20041;-76
2023/09/19 13:07:00;;;;;;;4.25;1.63;;;;;;;;;;4970967;28;20033;-76
2023/09/19 13:09:34;;;;;;;6.63;1.90;;;;;;;;;;4968595;28;20498;-76
2023/09/19 13:12:02;;;;;;;4.72;1.70;;;;;;;;;;4970966;28;20643;-77
2023/09/19 13:14:31;;;;;;;6.50;1.65;;;;;;;;;;4966013;28;20063;-74
2023/09/19 13:17:18;;;;;;;5.10;1.70;;;;;;;;;;4965429;28;20022;-75
2023/09/19 13:20:07;;;;;;;4.88;1.48;;;;;;;;;;4970082;28;20396;-75
2023/09/19 13:22:48;;;;;;;5.22;1.73;;;;;;;;;;4970537;28;20479;-76
2023/09/19 13:25:19;;;;;;;8.30;1.80;;;;;;;;;;4970526;28;20116;-76
2023/09/19 13:27:54;;;;;;;4.68;1.60;;;;;;;;;;4969984;28;20034;-75
2023/09/19 13:30:21;;;;;;;5.53;1.70;;;;;;;;;;4970387;28;20023;-77
2023/09/19 13:32:47;;;;;;;7.60;1.50;;;;;;;;;;4970305;28;20038;-76
2023/09/19 13:35:14;;;;;;;6.50;1.48;;;;;;;;;;4970054;28;20030;-76
2023/09/19 13:37:46;;;;;;;4.90;1.40;;;;;;;;;;4969855;28;20018;-76
2023/09/19 13:40:13;;;;;;;4.78;1.48;;;;;;;;;;4970541;28;20041;-76
2023/09/19 13:42:39;;;;;;;7.07;1.80;;;;;;;;;;4969659;28;20047;-76
2023/09/19 13:45:06;;;;;;;6.18;1.48;;;;;;;;;;4969081;28;20019;-76
2023/09/19 13:47:32;;;;;;;8.02;1.60;;;;;;;;;;4966204;28;20027;-76
2023/09/19 13:49:58;;;;;;;6.10;1.65;;;;;;;;;;4957073;28;20032;-77
2023/09/19 13:52:24;;;;;;;4.95;1.55;;;;;;;;;;4966951;28;20272;-76
2023/09/19 13:55:01;;;;;;;7.00;1.70;;;;;;;;;;4970172;28;20361;-76
2023/09/19 13:57:26;;;;;;;5.50;1.58;;;;;;;;;;4969782;28;20039;-76
2023/09/19 13:59:55;;;;;;;5.82;1.48;;;;;;;;;;4970002;28;20468;-76
2023/09/19 14:02:24;;;;;;;7.15;1.80;;;;;;;;;;4969751;28;20027;-77
2023/09/19 14:04:51;;;;;;;6.10;1.50;;;;;;;;;;4970119;28;20102;-76
2023/09/19 14:07:17;;;;;;;5.95;1.50;;;;;;;;;;4968028;28;20025;-76
2023/09/19 14:09:43;;;;;;;4.90;1.40;;;;;;;;;;4969422;28;20085;-76
2023/09/19 14:12:09;;;;;;;6.63;1.60;;;;;;;;;;4969001;28;20475;-77
2023/09/19 14:14:34;;;;;;;7.75;1.77;;;;;;;;;;4970127;28;20027;-77
2023/09/19 14:17:02;;;;;;;4.65;1.52;;;;;;;;;;4969443;28;20030;-76
2023/09/19 14:19:28;;;;;;;5.95;1.88;;;;;;;;;;4952755;28;20596;-77
2023/09/19 14:21:56;;;;;;;4.45;1.52;;;;;;;;;;4971197;28;20039;-77
2023/09/19 14:24:22;;;;;;;3.30;1.50;;;;;;;;;;4972923;28;20015;-76
2023/09/19 14:26:49;;;;;;;8.65;1.90;;;;;;;;;;4970683;28;20114;-76
2023/09/19 14:29:15;;;;;;;3.72;1.80;;;;;;;;;;4962825;28;20055;-77
2023/09/19 14:31:40;;;;;;;4.63;1.60;;;;;;;;;;4974665;28;20173;-78
2023/09/19 14:34:06;;;;;;;7.05;1.75;;;;;;;;;;4963575;28;20086;-78
2023/09/19 14:36:33;;;;;;;6.05;1.50;;;;;;;;;;4975721;28;20345;-79
2023/09/19 14:38:58;;;;;;;6.38;1.60;;;;;;;;;;4981432;28;20023;-77
2023/09/19 14:41:25;;;;;;;7.03;1.70;;;;;;;;;;4982172;28;20267;-79
2023/09/19 14:43:55;;;;;;;7.88;1.67;;;;;;;;;;4981364;28;20077;-78
2023/09/19 14:46:21;;;;;;;7.13;1.70;;;;;;;;;;4981814;28;20027;-77
2023/09/19 14:48:47;;;;;;;5.43;1.70;;;;;;;;;;4976360;28;20015;-78
2023/09/19 14:51:13;;;;;;;8.30;1.50;;;;;;;;;;4977029;28;20101;-78
2023/09/19 14:53:39;;;;;;;5.15;1.60;;;;;;;;;;4975067;28;20054;-77
2023/09/19 14:56:07;;;;;;;8.07;1.90;;;;;;;;;;4978463;28;20034;-78
2023/09/19 14:58:33;;;;;;;4.45;1.40;;;;;;;;;;4975349;28;20021;-79
2023/09/19 15:01:13;;;;;;;7.03;1.70;;;;;;;;;;4975747;28;20458;-76